createdAt,value
2022-08-09T00:00:04.951Z,2.08
2022-08-09T00:02:43.065Z,2.90
2022-08-09T00:06:17.499Z,1.67
2022-08-09T00:08:04.188Z,2.13
2022-08-09T00:13:16.950Z,2.22
2022-08-09T00:15:59.638Z,2.30
2022-08-09T00:18:35.617Z,2.35
2022-08-09T00:21:08.483Z,2.10
2022-08-09T00:23:55.531Z,2.45
2022-08-09T00:26:32.650Z,2.35
2022-08-09T00:29:02.490Z,2.38
2022-08-09T00:31:58.802Z,2.35
2022-08-09T00:34:19.806Z,2.08
2022-08-09T00:36:48.763Z,2.35
2022-08-09T00:40:01.813Z,3.25
2022-08-09T00:44:14.427Z,3.05
2022-08-09T00:44:50.567Z,2.08
2022-08-09T00:47:21.450Z,2.60
2022-08-09T00:49:55.051Z,1.98
2022-08-09T00:52:30.700Z,2.58
2022-08-09T00:55:32.802Z,1.85
2022-08-09T00:58:03.702Z,2.47
2022-08-09T01:00:35.172Z,2.08
2022-08-09T01:03:22.616Z,3.05
2022-08-09T01:06:18.114Z,2.55
2022-08-09T01:09:16.397Z,2.13
2022-08-09T01:12:02.297Z,2.13
2022-08-09T01:14:52.653Z,2.45
2022-08-09T01:17:25.367Z,3.17
2022-08-09T01:20:05.210Z,3.10
2022-08-09T01:22:38.198Z,2.05
2022-08-09T01:25:19.131Z,2.58
2022-08-09T01:27:52.159Z,2.20
2022-08-09T01:30:28.458Z,2.90
2022-08-09T01:33:04.445Z,3.13
2022-08-09T01:35:42.306Z,2.72
2022-08-09T01:38:14.976Z,2.45
2022-08-09T01:40:52.970Z,2.50
2022-08-09T01:43:42.018Z,3.50
2022-08-09T01:46:27.716Z,2.90
2022-08-09T01:49:09.597Z,2.15
2022-08-09T01:51:39.405Z,3.08
2022-08-09T01:54:13.897Z,2.63
2022-08-09T01:56:47.188Z,2.65
2022-08-09T01:59:23.614Z,2.83
2022-08-09T02:01:59.810Z,2.83
2022-08-09T02:04:31.997Z,2.58
2022-08-09T02:07:18.299Z,2.85
2022-08-09T02:10:04.103Z,2.28
2022-08-09T02:12:33.946Z,2.35
2022-08-09T02:15:06.367Z,3.13
2022-08-09T02:18:00.271Z,2.28
2022-08-09T02:20:26.202Z,2.80
2022-08-09T02:23:26.405Z,2.05
2022-08-09T02:26:01.432Z,2.13
2022-08-09T02:28:40.634Z,2.30
2022-08-09T02:31:20.403Z,2.30
2022-08-09T02:34:06.480Z,2.22
2022-08-09T02:36:42.029Z,2.30
2022-08-09T02:39:33.606Z,1.98
2022-08-09T02:42:08.089Z,1.70
2022-08-09T02:44:38.003Z,2.03
2022-08-09T02:47:11.587Z,3.10
2022-08-09T02:50:01.747Z,2.42
2022-08-09T02:52:45.053Z,2.50
2022-08-09T02:55:20.615Z,2.33
2022-08-09T02:58:00.398Z,1.20
2022-08-09T03:00:47.852Z,2.00
2022-08-09T03:04:12.856Z,1.65
2022-08-09T03:06:16.256Z,1.70
2022-08-09T03:08:45.681Z,1.95
2022-08-09T03:12:04.683Z,2.22
2022-08-09T03:14:06.976Z,1.77
2022-08-09T03:16:37.376Z,2.38
2022-08-09T03:19:14.422Z,1.73
2022-08-09T03:21:58.142Z,2.30
2022-08-09T03:24:31.610Z,2.05
2022-08-09T03:27:17.148Z,2.33
2022-08-09T03:29:57.636Z,1.95
2022-08-09T03:32:32.084Z,2.83
2022-08-09T03:35:00.681Z,2.15
2022-08-09T03:37:55.649Z,1.95
2022-08-09T03:40:18.178Z,1.83
2022-08-09T03:42:46.645Z,2.38
2022-08-09T03:45:15.617Z,2.15
2022-08-09T03:47:46.810Z,2.03
2022-08-09T03:50:27.698Z,1.65
2022-08-09T03:52:58.217Z,2.13
2022-08-09T03:55:27.078Z,2.28
2022-08-09T03:58:06.585Z,2.10
2022-08-09T04:00:42.943Z,1.92
2022-08-09T04:03:15.317Z,1.45
2022-08-09T04:05:52.359Z,2.90
2022-08-09T04:08:19.376Z,1.98
2022-08-09T04:11:01.436Z,2.30
2022-08-09T04:14:37.670Z,2.15
2022-08-09T04:16:20.134Z,2.40
2022-08-09T04:18:49.090Z,2.28
2022-08-09T04:21:19.305Z,1.83
2022-08-09T04:23:54.240Z,1.83
2022-08-09T04:26:24.853Z,2.55
2022-08-09T04:29:09.597Z,2.13
2022-08-09T04:31:46.781Z,2.50
2022-08-09T04:34:18.825Z,2.40
2022-08-09T04:37:03.277Z,1.92
2022-08-09T04:39:38.008Z,2.40
2022-08-09T04:43:08.266Z,1.85
2022-08-09T04:45:53.319Z,2.20
2022-08-09T04:48:23.937Z,2.20
2022-08-09T04:51:00.914Z,2.05
2022-08-09T04:53:28.878Z,2.25
2022-08-09T04:55:59.855Z,1.95
2022-08-09T04:58:29.742Z,1.85
2022-08-09T05:00:59.675Z,2.35
2022-08-09T05:03:40.322Z,1.40
2022-08-09T05:06:22.133Z,2.30
2022-08-09T05:09:00.652Z,2.53
2022-08-09T05:11:30.604Z,1.42
2022-08-09T05:14:01.017Z,1.80
2022-08-09T05:16:43.518Z,1.83
2022-08-09T05:19:25.919Z,1.67
2022-08-09T05:21:55.958Z,1.90
2022-08-09T05:24:25.809Z,2.15
2022-08-09T05:26:53.600Z,1.55
2022-08-09T05:29:24.189Z,1.70
2022-08-09T05:32:02.164Z,1.30
2022-08-09T05:34:32.567Z,1.95
2022-08-09T05:37:06.779Z,2.03
2022-08-09T05:39:43.117Z,2.22
2022-08-09T05:42:20.622Z,1.63
2022-08-09T05:44:53.575Z,1.55
2022-08-09T05:47:23.232Z,2.08
2022-08-09T05:50:25.257Z,2.10
2022-08-09T05:52:43.489Z,2.17
2022-08-09T05:55:18.130Z,2.20
2022-08-09T05:57:51.296Z,1.98
2022-08-09T06:00:29.686Z,1.75
2022-08-09T06:02:58.865Z,1.50
2022-08-09T06:05:54.756Z,1.90
2022-08-09T06:08:33.007Z,1.90
2022-08-09T06:11:01.250Z,2.55
2022-08-09T06:13:34.235Z,2.50
2022-08-09T06:16:04.517Z,1.90
2022-08-09T06:18:33.059Z,1.92
2022-08-09T06:21:01.572Z,2.28
2022-08-09T06:23:55.104Z,2.22
2022-08-09T06:26:22.345Z,1.80
2022-08-09T06:29:01.059Z,2.75
2022-08-09T06:31:39.695Z,2.45
2022-08-09T06:34:20.393Z,2.38
2022-08-09T06:36:59.085Z,1.90
2022-08-09T06:39:49.008Z,1.92
2022-08-09T06:42:14.643Z,2.78
2022-08-09T06:44:44.408Z,2.00
2022-08-09T06:47:19.076Z,2.22
2022-08-09T06:50:14.001Z,2.08
2022-08-09T06:52:33.246Z,2.13
2022-08-09T06:55:00.503Z,2.35
2022-08-09T06:58:02.213Z,2.22
2022-08-09T07:00:55.411Z,1.92
2022-08-09T07:03:16.540Z,2.13
2022-08-09T07:06:02.740Z,2.00
2022-08-09T07:08:30.735Z,1.88
2022-08-09T07:10:57.826Z,1.70
2022-08-09T07:13:27.889Z,1.90
2022-08-09T07:16:43.269Z,1.65
2022-08-09T07:18:47.560Z,2.13
2022-08-09T07:21:17.574Z,2.38
2022-08-09T07:23:56.273Z,1.45
2022-08-09T07:26:26.291Z,1.98
2022-08-09T07:29:08.917Z,1.90
2022-08-09T07:31:45.334Z,1.38
2022-08-09T07:34:20.258Z,2.20
2022-08-09T07:36:50.620Z,1.92
2022-08-09T07:39:40.251Z,1.90
2022-08-09T07:42:08.791Z,2.13
2022-08-09T07:44:52.179Z,1.90
2022-08-09T07:47:23.291Z,1.70
2022-08-09T07:50:09.718Z,2.75
2022-08-09T07:52:38.548Z,1.77
2022-08-09T07:55:09.711Z,1.52
2022-08-09T07:57:47.167Z,1.48
2022-08-09T08:00:20.530Z,1.60
2022-08-09T08:03:04.897Z,1.83
2022-08-09T08:05:53.461Z,2.00
2022-08-09T08:08:59.782Z,1.95
2022-08-09T08:12:11.321Z,1.55
2022-08-09T08:13:56.596Z,1.52
2022-08-09T08:16:31.365Z,1.88
2022-08-09T08:19:03.049Z,1.50
2022-08-09T08:21:31.888Z,1.30
2022-08-09T08:24:01.014Z,2.00
2022-08-09T08:26:47.479Z,1.67
2022-08-09T08:29:20.400Z,2.17
2022-08-09T08:32:03.204Z,1.80
2022-08-09T08:34:36.745Z,1.40
2022-08-09T08:37:04.088Z,1.95
2022-08-09T08:39:38.192Z,2.22
2022-08-09T08:42:11.093Z,1.42
2022-08-09T08:44:39.653Z,1.67
2022-08-09T08:47:12.343Z,2.22
2022-08-09T08:49:48.190Z,1.33
2022-08-09T08:52:52.667Z,1.50
2022-08-09T08:55:08.150Z,1.35
2022-08-09T08:57:37.110Z,1.90
2022-08-09T09:00:16.764Z,1.88
2022-08-09T09:02:52.783Z,1.83
2022-08-09T09:05:57.443Z,1.58
2022-08-09T09:11:07.106Z,2.00
2022-08-09T09:13:56.724Z,1.30
2022-08-09T09:16:34.423Z,1.85
2022-08-09T09:22:23.819Z,1.58
2022-08-09T09:26:00.321Z,1.30
2022-08-09T09:28:05.766Z,1.23
2022-08-09T09:30:40.109Z,1.67
2022-08-09T09:33:15.957Z,1.63
2022-08-09T09:36:01.744Z,1.85
2022-08-09T09:38:53.278Z,1.13
2022-08-09T09:41:33.001Z,1.15
2022-08-09T09:44:11.143Z,1.33
2022-08-09T09:46:50.405Z,1.58
2022-08-09T09:50:07.465Z,1.55
2022-08-09T09:52:33.756Z,2.22
2022-08-09T09:55:23.858Z,2.13
2022-08-09T09:58:16.413Z,2.00
2022-08-09T10:00:55.750Z,1.17
2022-08-09T10:03:58.084Z,1.48
2022-08-09T10:06:32.287Z,1.88
2022-08-09T10:09:11.957Z,1.77
2022-08-09T10:12:12.081Z,1.58
2022-08-09T10:14:48.103Z,1.30
2022-08-09T10:17:51.417Z,1.75
2022-08-09T10:23:17.232Z,1.30
2022-08-09T10:26:06.998Z,1.48
2022-08-09T10:28:39.985Z,1.20
2022-08-09T10:34:18.854Z,1.90
2022-08-09T10:36:57.330Z,1.77
2022-08-09T10:40:03.500Z,1.50
2022-08-09T10:42:55.616Z,1.70
2022-08-09T10:45:35.373Z,1.25
2022-08-09T10:48:16.318Z,1.40
2022-08-09T10:51:20.446Z,1.73
2022-08-09T10:54:12.523Z,1.80
2022-08-09T10:56:43.976Z,2.08
2022-08-09T10:59:31.848Z,1.80
2022-08-09T11:03:18.064Z,1.13
2022-08-09T11:05:36.780Z,1.70
2022-08-09T11:09:15.284Z,1.75
2022-08-09T11:12:00.852Z,1.60
2022-08-09T11:14:44.089Z,1.35
2022-08-09T11:17:19.531Z,1.60
2022-08-09T11:20:11.089Z,1.65
2022-08-09T11:22:40.941Z,1.88
2022-08-09T11:25:10.383Z,1.40
2022-08-09T11:28:04.836Z,1.83
2022-08-09T11:30:52.117Z,2.10
2022-08-09T11:33:54.240Z,2.00
2022-08-09T11:36:42.900Z,1.65
2022-08-09T11:39:12.075Z,1.52
2022-08-09T11:41:40.770Z,1.95
2022-08-09T11:44:08.903Z,2.58
2022-08-09T11:46:58.233Z,2.30
2022-08-09T11:50:56.385Z,2.08
2022-08-09T11:53:15.958Z,2.00
2022-08-09T11:55:53.140Z,1.40
2022-08-09T11:58:33.215Z,1.23
2022-08-09T12:01:08.560Z,1.73
2022-08-09T12:03:56.039Z,1.60
2022-08-09T12:06:32.380Z,2.10
2022-08-09T12:09:06.159Z,1.95
2022-08-09T12:12:13.225Z,2.17
2022-08-09T12:15:49.680Z,2.22
2022-08-09T12:18:25.961Z,1.75
2022-08-09T12:21:03.043Z,1.73
2022-08-09T12:23:56.434Z,1.75
2022-08-09T12:29:13.477Z,1.08
2022-08-09T12:30:01.898Z,1.80
2022-08-09T12:32:48.381Z,1.65
2022-08-09T12:37:51.701Z,1.25
2022-08-09T12:40:23.138Z,1.08
2022-08-09T12:42:52.800Z,1.55
2022-08-09T12:45:34.323Z,1.30
2022-08-09T12:48:19.826Z,1.58
2022-08-09T12:50:56.196Z,1.50
2022-08-09T12:53:40.891Z,1.80
2022-08-09T12:56:43.045Z,2.35
2022-08-09T12:59:10.650Z,1.83
2022-08-09T13:01:46.967Z,1.65
2022-08-09T13:04:35.880Z,1.90
2022-08-09T13:07:13.476Z,1.73
2022-08-09T13:09:52.682Z,1.90
2022-08-09T13:12:22.530Z,1.40
2022-08-09T13:14:53.799Z,2.10
2022-08-09T13:17:21.843Z,1.92
2022-08-09T13:20:18.808Z,1.92
2022-08-09T13:23:00.928Z,1.70
2022-08-09T13:25:54.334Z,1.55
2022-08-09T13:28:34.547Z,2.05
2022-08-09T13:32:19.577Z,2.40
2022-08-09T13:33:59.737Z,1.85
2022-08-09T13:36:40.706Z,2.83
2022-08-09T13:42:03.535Z,1.35
2022-08-09T13:44:32.599Z,2.20
2022-08-09T13:47:27.536Z,1.90
2022-08-09T13:49:55.971Z,1.73
2022-08-09T13:52:25.048Z,2.08
2022-08-09T13:54:59.849Z,1.77
2022-08-09T13:57:37.387Z,1.40
2022-08-09T14:00:19.827Z,2.45
2022-08-09T14:03:16.930Z,2.15
2022-08-09T14:05:58.351Z,2.72
2022-08-09T14:08:28.383Z,1.58
2022-08-09T14:14:26.900Z,1.40
2022-08-09T14:17:01.795Z,1.90
2022-08-09T14:19:30.327Z,1.58
2022-08-09T14:22:00.558Z,1.73
2022-08-09T14:24:32.309Z,2.00
2022-08-09T14:27:01.272Z,2.45
2022-08-09T14:30:34.225Z,1.38
2022-08-09T14:32:19.693Z,1.25
2022-08-09T14:34:56.901Z,2.10
2022-08-09T14:37:28.099Z,1.48
2022-08-09T14:39:55.780Z,1.60
2022-08-09T14:42:32.065Z,1.55
2022-08-09T14:46:58.035Z,2.30
2022-08-09T14:48:05.569Z,2.33
2022-08-09T14:50:35.180Z,1.70
2022-08-09T14:53:12.093Z,2.00
2022-08-09T14:55:42.063Z,1.50
2022-08-09T14:58:10.098Z,2.95
2022-08-09T15:00:39.845Z,1.73
2022-08-09T15:03:10.536Z,1.55
2022-08-09T15:05:39.070Z,1.55
2022-08-09T15:08:10.371Z,1.73
2022-08-09T15:10:38.129Z,1.48
2022-08-09T15:13:08.900Z,1.92
2022-08-09T15:15:39.392Z,2.60
2022-08-09T15:18:14.127Z,1.98
2022-08-09T15:21:56.133Z,2.28
2022-08-09T15:24:03.598Z,2.20
2022-08-09T15:26:18.850Z,1.98
2022-08-09T15:28:57.940Z,2.38
2022-08-09T15:31:41.026Z,2.30
2022-08-09T15:34:31.116Z,1.60
2022-08-09T15:36:58.301Z,2.95
2022-08-09T15:39:26.195Z,2.00
2022-08-09T15:42:11.959Z,1.98
2022-08-09T15:44:46.590Z,2.53
2022-08-09T15:47:14.488Z,2.38
2022-08-09T15:50:03.916Z,2.40
2022-08-09T15:52:37.808Z,2.45
2022-08-09T15:55:15.530Z,2.38
2022-08-09T15:57:44.329Z,3.08
2022-08-09T16:00:25.703Z,2.08
2022-08-09T16:02:56.398Z,1.90
2022-08-09T16:05:47.173Z,1.67
2022-08-09T16:08:29.795Z,2.20
2022-08-09T16:11:01.670Z,1.98
2022-08-09T16:14:04.273Z,2.97
2022-08-09T16:16:26.110Z,2.78
2022-08-09T16:21:25.192Z,1.85
2022-08-09T16:24:02.409Z,2.30
2022-08-09T16:26:36.270Z,2.05
2022-08-09T16:29:11.762Z,1.77
2022-08-09T16:32:19.329Z,1.50
2022-08-09T16:34:55.005Z,1.38
2022-08-09T16:37:55.686Z,1.75
2022-08-09T16:40:11.494Z,1.80
2022-08-09T16:42:45.130Z,1.65
2022-08-09T16:45:19.886Z,2.17
2022-08-09T16:48:40.193Z,2.28
2022-08-09T16:50:46.201Z,2.03
2022-08-09T16:53:34.013Z,1.73
2022-08-09T16:56:07.643Z,2.05
2022-08-09T16:58:49.781Z,2.30
2022-08-09T17:01:23.764Z,2.15
2022-08-09T17:03:53.131Z,2.03
2022-08-09T17:06:31.802Z,2.20
2022-08-09T17:09:12.051Z,1.83
2022-08-09T17:11:52.444Z,1.95
2022-08-09T17:14:27.571Z,2.45
2022-08-09T17:17:02.306Z,2.20
2022-08-09T17:19:46.386Z,2.53
2022-08-09T17:22:30.795Z,2.33
2022-08-09T17:25:03.495Z,2.25
2022-08-09T17:27:32.808Z,2.25
2022-08-09T17:30:06.852Z,2.20
2022-08-09T17:32:46.290Z,2.33
2022-08-09T17:35:14.676Z,3.75
2022-08-09T17:38:12.745Z,2.63
2022-08-09T17:40:34.525Z,2.35
2022-08-09T17:43:32.560Z,2.97
2022-08-09T17:46:04.248Z,3.15
2022-08-09T17:48:52.157Z,2.42
2022-08-09T17:51:21.489Z,2.78
2022-08-09T17:53:55.013Z,2.22
2022-08-09T17:56:28.792Z,2.40
2022-08-09T17:59:11.538Z,2.70
2022-08-09T18:01:58.181Z,2.53
2022-08-09T18:04:27.360Z,3.20
2022-08-09T18:06:55.781Z,2.70
2022-08-09T18:09:40.396Z,2.97
2022-08-09T18:12:15.304Z,2.75
2022-08-09T18:14:49.804Z,2.97
2022-08-09T18:17:27.725Z,2.25
2022-08-09T18:20:55.072Z,2.92
2022-08-09T18:22:56.306Z,2.95
2022-08-09T18:25:53.031Z,2.97
2022-08-09T18:28:21.575Z,3.28
2022-08-09T18:31:24.971Z,2.78
2022-08-09T18:34:11.035Z,3.22
2022-08-09T18:36:38.474Z,3.13
2022-08-09T18:39:06.437Z,3.55
2022-08-09T18:41:36.333Z,2.90
2022-08-09T18:44:12.429Z,3.42
2022-08-09T18:46:47.090Z,2.65
2022-08-09T18:49:20.101Z,3.63
2022-08-09T18:51:58.373Z,2.90
2022-08-09T18:54:52.190Z,2.97
2022-08-09T18:57:42.734Z,3.50
2022-08-09T19:00:16.361Z,3.83
2022-08-09T19:02:51.036Z,3.25
2022-08-09T19:05:28.817Z,3.13
2022-08-09T19:08:18.298Z,3.20
2022-08-09T19:10:50.917Z,3.10
2022-08-09T19:13:38.054Z,2.72
2022-08-09T19:16:11.177Z,3.40
2022-08-09T19:18:45.292Z,3.60
2022-08-09T19:21:13.273Z,4.88
2022-08-09T19:24:37.240Z,3.78
2022-08-09T19:26:36.069Z,3.88
2022-08-09T19:29:15.289Z,4.20
2022-08-09T19:31:51.248Z,3.63
2022-08-09T19:34:22.539Z,3.67
2022-08-09T19:36:52.089Z,4.32
2022-08-09T19:39:20.849Z,4.25
2022-08-09T19:41:57.127Z,3.38
2022-08-09T19:44:25.001Z,4.10
2022-08-09T19:46:53.555Z,3.28
2022-08-09T19:50:05.109Z,4.10
2022-08-09T19:52:10.161Z,3.13
2022-08-09T19:54:39.976Z,4.07
2022-08-09T19:57:08.479Z,4.18
2022-08-09T19:59:59.763Z,3.78
2022-08-09T20:04:12.141Z,4.45
2022-08-09T20:05:15.159Z,3.83
2022-08-09T20:07:58.762Z,4.65
2022-08-09T20:10:34.573Z,4.35
2022-08-09T20:13:05.427Z,4.28
2022-08-09T20:16:35.699Z,4.82
2022-08-09T20:18:22.844Z,4.22
2022-08-09T20:20:56.707Z,4.10
2022-08-09T20:23:24.430Z,3.65
2022-08-09T20:26:07.047Z,4.25
2022-08-09T20:28:47.772Z,4.03
2022-08-09T20:31:16.135Z,3.75
2022-08-09T20:33:44.723Z,5.80
2022-08-09T20:36:12.736Z,4.63
2022-08-09T20:41:34.662Z,4.45
2022-08-09T20:44:06.769Z,3.75
2022-08-09T20:46:42.782Z,5.28
2022-08-09T20:49:11.546Z,5.57
2022-08-09T20:51:41.467Z,5.03
2022-08-09T20:54:17.136Z,5.03
2022-08-09T20:56:49.642Z,4.07
2022-08-09T20:59:49.996Z,4.40
2022-08-09T21:02:10.908Z,4.60
2022-08-09T21:05:51.070Z,4.43
2022-08-09T21:07:38.694Z,4.43
2022-08-09T21:10:08.228Z,6.43
2022-08-09T21:12:38.352Z,4.57
2022-08-09T21:15:06.383Z,4.60
2022-08-09T21:18:21.016Z,4.30
2022-08-09T21:20:30.361Z,4.90
2022-08-09T21:23:00.614Z,4.87
2022-08-09T21:25:55.652Z,5.30
2022-08-09T21:28:36.025Z,4.07
2022-08-09T21:31:18.221Z,5.72
2022-08-09T21:33:52.507Z,4.90
2022-08-09T21:36:23.154Z,6.20
2022-08-09T21:38:57.602Z,5.30
2022-08-09T21:42:04.739Z,4.95
2022-08-09T21:44:33.100Z,5.13
2022-08-09T21:47:03.700Z,5.18
2022-08-09T21:49:39.910Z,6.18
2022-08-09T21:52:14.821Z,5.13
2022-08-09T21:54:49.578Z,5.20
2022-08-09T21:57:37.121Z,5.47
2022-08-09T22:00:11.076Z,5.05
2022-08-09T22:02:40.264Z,4.20
2022-08-09T22:05:22.919Z,4.93
2022-08-09T22:07:53.370Z,4.88
2022-08-09T22:10:23.283Z,5.15
2022-08-09T22:12:52.323Z,4.95
2022-08-09T22:15:20.673Z,4.55
2022-08-09T22:17:50.490Z,4.38
2022-08-09T22:20:27.408Z,4.25
2022-08-09T22:22:58.443Z,4.93
2022-08-09T22:26:05.422Z,4.40
2022-08-09T22:28:13.133Z,4.47
2022-08-09T22:30:48.826Z,4.78
2022-08-09T22:33:17.350Z,4.25
2022-08-09T22:36:01.375Z,3.95
2022-08-09T22:38:29.851Z,4.25
2022-08-09T22:40:58.381Z,3.97
2022-08-09T22:44:01.735Z,3.60
2022-08-09T22:48:12.975Z,3.45
2022-08-09T22:49:26.507Z,3.35
2022-08-09T22:51:57.484Z,3.72
2022-08-09T22:54:26.094Z,3.50
2022-08-09T22:56:57.149Z,3.35
2022-08-09T22:59:57.702Z,3.10
2022-08-09T23:02:15.615Z,3.83
2022-08-09T23:04:54.279Z,4.65
2022-08-09T23:08:29.150Z,3.55
2022-08-09T23:10:30.392Z,3.85
2022-08-09T23:12:57.861Z,3.28
2022-08-09T23:15:24.961Z,3.67
2022-08-09T23:17:51.991Z,3.35
2022-08-09T23:20:19.005Z,3.28
2022-08-09T23:22:46.763Z,2.95
2022-08-09T23:25:13.711Z,2.88
2022-08-09T23:28:11.658Z,3.40
2022-08-09T23:30:28.708Z,3.13
2022-08-09T23:32:55.764Z,2.90
2022-08-09T23:35:23.118Z,3.50
2022-08-09T23:37:50.055Z,4.55
2022-08-09T23:40:17.302Z,3.05
2022-08-09T23:42:44.239Z,3.55
2022-08-09T23:45:11.454Z,3.22
2022-08-09T23:47:58.540Z,3.08
2022-08-09T23:50:25.544Z,3.10
2022-08-09T23:52:52.842Z,3.00
2022-08-09T23:55:20.116Z,3.85
2022-08-09T23:57:59.034Z,3.92
